DRU223 UUWW-UWKD
Flight info
| Callsign | DRU223 |
|---|---|
| Flight time | N/A |
| Altitude | 37000 |
| Route | KOGOM3D KOGOM L94 EKPIR M864 INKEB L94 UNORO T788 KOROM KOROM1R |
| Aircraft | A321/M-SDE3FGHIRWY/LB1 |
Departure
| Time | N/A |
|---|---|
| Airport | Vnukovo International Airport (UUWW) |
Arrival
| Time | 2026-05-06 10:35 |
|---|---|
| Airport | Kazan International Airport (UWKD) |
| Time | Latitude | Longitude | Altitude | Speed | Heading |
|---|---|---|---|---|---|
| 2026-05-06 10:06 | 56.08071 | 44.99898 | 36822 ft | 475 kts | 95° |
| 2026-05-06 10:06 | 56.07517 | 45.05710 | 36538 ft | 467 kts | 95° |
| 2026-05-06 10:06 | 56.06983 | 45.11251 | 36288 ft | 454 kts | 96° |
| 2026-05-06 10:06 | 56.06441 | 45.16878 | 36035 ft | 452 kts | 95° |
| 2026-05-06 10:07 | 56.05911 | 45.22368 | 35786 ft | 451 kts | 95° |
| 2026-05-06 10:07 | 56.05378 | 45.27877 | 35538 ft | 450 kts | 95° |
| 2026-05-06 10:07 | 56.04844 | 45.33376 | 35283 ft | 451 kts | 95° |
| 2026-05-06 10:07 | 56.04309 | 45.38848 | 35023 ft | 443 kts | 95° |
| 2026-05-06 10:08 | 56.03772 | 45.44313 | 34772 ft | 441 kts | 95° |
| 2026-05-06 10:08 | 56.03245 | 45.49668 | 34523 ft | 441 kts | 95° |
| 2026-05-06 10:08 | 56.02710 | 45.55081 | 34274 ft | 442 kts | 95° |
| 2026-05-06 10:08 | 56.02175 | 45.60472 | 34026 ft | 442 kts | 95° |
| 2026-05-06 10:09 | 56.01627 | 45.65963 | 33772 ft | 442 kts | 96° |
| 2026-05-06 10:09 | 56.01082 | 45.71398 | 33521 ft | 443 kts | 96° |
| 2026-05-06 10:09 | 56.00533 | 45.76848 | 33269 ft | 443 kts | 96° |
| 2026-05-06 10:09 | 55.99979 | 45.82328 | 33016 ft | 444 kts | 96° |
| 2026-05-06 10:10 | 55.99426 | 45.87765 | 32765 ft | 444 kts | 96° |
| 2026-05-06 10:10 | 55.98874 | 45.93166 | 32517 ft | 445 kts | 96° |
| 2026-05-06 10:10 | 55.98313 | 45.98631 | 32199 ft | 446 kts | 96° |
| 2026-05-06 10:10 | 55.97752 | 46.04066 | 31700 ft | 447 kts | 96° |
| 2026-05-06 10:11 | 55.97189 | 46.09504 | 31060 ft | 447 kts | 96° |
| 2026-05-06 10:11 | 55.96617 | 46.15000 | 30569 ft | 442 kts | 96° |
| 2026-05-06 10:11 | 55.96051 | 46.20403 | 30110 ft | 437 kts | 97° |
| 2026-05-06 10:11 | 55.95491 | 46.25725 | 29639 ft | 433 kts | 97° |
| 2026-05-06 10:12 | 55.94937 | 46.30954 | 29164 ft | 429 kts | 97° |
| 2026-05-06 10:12 | 55.94380 | 46.36202 | 28674 ft | 425 kts | 97° |
| 2026-05-06 10:12 | 55.93835 | 46.41313 | 28197 ft | 422 kts | 97° |
| 2026-05-06 10:12 | 55.93288 | 46.46427 | 27721 ft | 418 kts | 97° |
| 2026-05-06 10:13 | 55.92735 | 46.51582 | 27236 ft | 415 kts | 97° |
| 2026-05-06 10:13 | 55.92194 | 46.56590 | 26761 ft | 412 kts | 97° |
| 2026-05-06 10:13 | 55.91651 | 46.61598 | 26283 ft | 408 kts | 97° |
| 2026-05-06 10:13 | 55.91111 | 46.66574 | 25804 ft | 406 kts | 98° |
| 2026-05-06 10:14 | 55.90573 | 46.71504 | 25325 ft | 403 kts | 98° |
| 2026-05-06 10:14 | 55.90034 | 46.76421 | 24845 ft | 400 kts | 98° |
| 2026-05-06 10:14 | 55.89482 | 46.81435 | 24352 ft | 397 kts | 98° |
| 2026-05-06 10:14 | 55.88958 | 46.86190 | 23887 ft | 395 kts | 98° |
| 2026-05-06 10:15 | 55.88397 | 46.91266 | 23400 ft | 391 kts | 98° |
| 2026-05-06 10:15 | 55.87869 | 46.96018 | 22946 ft | 388 kts | 99° |
| 2026-05-06 10:15 | 55.87336 | 47.00791 | 22465 ft | 386 kts | 99° |
| 2026-05-06 10:15 | 55.86811 | 47.05481 | 21990 ft | 384 kts | 99° |
| 2026-05-06 10:16 | 55.86283 | 47.10157 | 21519 ft | 381 kts | 99° |
| 2026-05-06 10:16 | 55.85755 | 47.14811 | 21046 ft | 379 kts | 99° |
| 2026-05-06 10:16 | 55.85231 | 47.19426 | 20577 ft | 376 kts | 99° |
| 2026-05-06 10:16 | 55.84711 | 47.23994 | 20110 ft | 374 kts | 99° |
| 2026-05-06 10:17 | 55.84195 | 47.28505 | 19646 ft | 371 kts | 99° |
| 2026-05-06 10:17 | 55.83673 | 47.33057 | 19176 ft | 369 kts | 99° |
| 2026-05-06 10:17 | 55.83160 | 47.37519 | 18713 ft | 366 kts | 99° |
| 2026-05-06 10:17 | 55.82645 | 47.41982 | 18247 ft | 364 kts | 99° |
| 2026-05-06 10:18 | 55.82134 | 47.46401 | 17784 ft | 361 kts | 99° |
| 2026-05-06 10:18 | 55.81623 | 47.50799 | 17322 ft | 359 kts | 100° |
| 2026-05-06 10:18 | 55.81116 | 47.55150 | 16863 ft | 356 kts | 100° |
| 2026-05-06 10:18 | 55.80613 | 47.59448 | 16407 ft | 354 kts | 100° |
| 2026-05-06 10:19 | 55.80107 | 47.63752 | 15950 ft | 352 kts | 100° |
| 2026-05-06 10:19 | 55.79599 | 47.68058 | 15491 ft | 349 kts | 101° |
| 2026-05-06 10:19 | 55.79105 | 47.72245 | 15040 ft | 347 kts | 101° |
| 2026-05-06 10:19 | 55.78605 | 47.76448 | 14587 ft | 345 kts | 101° |
| 2026-05-06 10:20 | 55.78007 | 47.80597 | 14135 ft | 343 kts | 105° |
| 2026-05-06 10:20 | 55.77243 | 47.84631 | 13688 ft | 341 kts | 110° |
| 2026-05-06 10:20 | 55.76365 | 47.88569 | 13244 ft | 339 kts | 111° |
| 2026-05-06 10:20 | 55.75487 | 47.92421 | 12809 ft | 336 kts | 111° |
| 2026-05-06 10:21 | 55.74594 | 47.96333 | 12370 ft | 334 kts | 111° |
| 2026-05-06 10:21 | 55.73715 | 48.00180 | 11940 ft | 331 kts | 111° |
| 2026-05-06 10:21 | 55.72840 | 48.04009 | 11515 ft | 329 kts | 111° |
| 2026-05-06 10:21 | 55.71978 | 48.07781 | 11097 ft | 327 kts | 111° |
| 2026-05-06 10:22 | 55.71114 | 48.11554 | 10674 ft | 324 kts | 111° |
| 2026-05-06 10:22 | 55.70263 | 48.15271 | 10340 ft | 318 kts | 111° |
| 2026-05-06 10:22 | 55.69455 | 48.18785 | 10223 ft | 305 kts | 111° |
| 2026-05-06 10:22 | 55.68665 | 48.22213 | 10100 ft | 292 kts | 111° |
| 2026-05-06 10:23 | 55.67906 | 48.25494 | 9950 ft | 282 kts | 111° |
| 2026-05-06 10:23 | 55.67157 | 48.28735 | 9569 ft | 281 kts | 111° |
| 2026-05-06 10:23 | 55.66407 | 48.31977 | 9197 ft | 280 kts | 111° |
| 2026-05-06 10:23 | 55.65652 | 48.35244 | 8837 ft | 279 kts | 111° |
| 2026-05-06 10:24 | 55.64910 | 48.38443 | 8486 ft | 276 kts | 111° |
| 2026-05-06 10:24 | 55.64180 | 48.41587 | 8142 ft | 273 kts | 111° |
| 2026-05-06 10:24 | 55.63454 | 48.44712 | 7794 ft | 270 kts | 111° |
| 2026-05-06 10:24 | 55.62819 | 48.47840 | 7442 ft | 267 kts | 103° |
| 2026-05-06 10:25 | 55.62544 | 48.51052 | 7106 ft | 263 kts | 91° |
| 2026-05-06 10:25 | 55.62540 | 48.54176 | 6798 ft | 259 kts | 87° |
| 2026-05-06 10:25 | 55.62592 | 48.57387 | 6461 ft | 257 kts | 86° |
| 2026-05-06 10:25 | 55.62647 | 48.60542 | 6144 ft | 254 kts | 87° |
| 2026-05-06 10:26 | 55.62694 | 48.63661 | 5830 ft | 251 kts | 87° |
| 2026-05-06 10:26 | 55.62735 | 48.66807 | 5507 ft | 249 kts | 88° |
| 2026-05-06 10:26 | 55.62770 | 48.69879 | 5182 ft | 247 kts | 88° |
| 2026-05-06 10:26 | 55.62804 | 48.72896 | 4881 ft | 244 kts | 88° |
| 2026-05-06 10:27 | 55.62834 | 48.75955 | 4564 ft | 242 kts | 88° |
| 2026-05-06 10:27 | 55.62866 | 48.78943 | 4266 ft | 240 kts | 89° |
| 2026-05-06 10:27 | 55.62891 | 48.81846 | 4132 ft | 229 kts | 88° |
| 2026-05-06 10:27 | 55.62914 | 48.84632 | 4111 ft | 221 kts | 88° |
| 2026-05-06 10:28 | 55.62936 | 48.87293 | 4128 ft | 203 kts | 89° |
| 2026-05-06 10:28 | 55.63013 | 48.89664 | 4053 ft | 187 kts | 76° |
| 2026-05-06 10:28 | 55.63597 | 48.91621 | 3958 ft | 170 kts | 48° |
| 2026-05-06 10:28 | 55.64403 | 48.93035 | 3800 ft | 158 kts | 42° |
| 2026-05-06 10:29 | 55.65197 | 48.94300 | 3613 ft | 149 kts | 43° |
| 2026-05-06 10:29 | 55.65974 | 48.95549 | 3465 ft | 149 kts | 42° |
| 2026-05-06 10:29 | 55.66740 | 48.96787 | 3316 ft | 149 kts | 43° |
| 2026-05-06 10:29 | 55.67507 | 48.98049 | 3167 ft | 149 kts | 43° |
| 2026-05-06 10:30 | 55.68264 | 48.99296 | 3018 ft | 148 kts | 42° |
| 2026-05-06 10:30 | 55.69021 | 49.00554 | 2871 ft | 148 kts | 42° |
| 2026-05-06 10:30 | 55.69775 | 49.01843 | 2632 ft | 149 kts | 50° |
| 2026-05-06 10:30 | 55.70014 | 49.03575 | 2413 ft | 150 kts | 107° |
| 2026-05-06 10:31 | 55.69466 | 49.05164 | 2454 ft | 152 kts | 125° |
| 2026-05-06 10:31 | 55.68866 | 49.06660 | 2478 ft | 144 kts | 123° |
| 2026-05-06 10:31 | 55.68305 | 49.08117 | 2493 ft | 141 kts | 122° |
| 2026-05-06 10:31 | 55.67754 | 49.09558 | 2469 ft | 141 kts | 123° |
| 2026-05-06 10:32 | 55.67191 | 49.11013 | 2301 ft | 141 kts | 123° |
| 2026-05-06 10:32 | 55.66633 | 49.12450 | 2107 ft | 140 kts | 123° |
| 2026-05-06 10:32 | 55.66076 | 49.13879 | 1917 ft | 139 kts | 123° |
| 2026-05-06 10:32 | 55.65520 | 49.15302 | 1734 ft | 139 kts | 123° |
| 2026-05-06 10:33 | 55.64967 | 49.16721 | 1545 ft | 140 kts | 123° |
| 2026-05-06 10:33 | 55.64411 | 49.18127 | 1396 ft | 138 kts | 123° |
| 2026-05-06 10:33 | 55.63850 | 49.19513 | 1171 ft | 137 kts | 124° |
| 2026-05-06 10:33 | 55.63304 | 49.20921 | 985 ft | 137 kts | 121° |
| 2026-05-06 10:34 | 55.62778 | 49.22322 | 834 ft | 141 kts | 122° |
| 2026-05-06 10:34 | 55.62239 | 49.23697 | 623 ft | 130 kts | 123° |
| 2026-05-06 10:34 | 55.61715 | 49.25046 | 465 ft | 133 kts | 122° |
| 2026-05-06 10:34 | 55.61175 | 49.26456 | 431 ft | 125 kts | 123° |
| 2026-05-06 10:35 | 55.60743 | 49.27575 | 420 ft | 88 kts | 122° |
| 2026-05-06 10:35 | 55.60485 | 49.28208 | 420 ft | 38 kts | 122° |
| 2026-05-06 10:35 | 55.60375 | 49.28496 | 420 ft | 27 kts | 121° |
| 2026-05-06 10:35 | 55.60267 | 49.28791 | 420 ft | 29 kts | 123° |
| 2026-05-06 10:36 | 55.60146 | 49.29108 | 420 ft | 31 kts | 126° |
| 2026-05-06 10:36 | 55.60025 | 49.29437 | 420 ft | 32 kts | 123° |
| 2026-05-06 10:36 | 55.59893 | 49.29777 | 420 ft | 34 kts | 129° |
| 2026-05-06 10:36 | 55.59844 | 49.30058 | 420 ft | 15 kts | 35° |
| 2026-05-06 10:37 | 55.59946 | 49.30110 | 420 ft | 14 kts | 16° |
| 2026-05-06 10:37 | 55.60044 | 49.30075 | 420 ft | 15 kts | 330° |
| 2026-05-06 10:37 | 55.60138 | 49.29983 | 420 ft | 15 kts | 334° |
| 2026-05-06 10:37 | 55.60238 | 49.29910 | 420 ft | 15 kts | 339° |
| 2026-05-06 10:38 | 55.60345 | 49.29892 | 420 ft | 15 kts | 15° |
| 2026-05-06 10:38 | 55.60440 | 49.29984 | 420 ft | 15 kts | 33° |
| 2026-05-06 10:38 | 55.60531 | 49.30087 | 420 ft | 7 kts | 15° |